sensor_id;sensor_type;location;lat;lon;timestamp;P1;durP1;ratioP1;P2;durP2;ratioP2
21754;SDS011;11039;50.028;19.938;2023-01-28T00:00:27;11.55;;;9.25;;
21754;SDS011;11039;50.028;19.938;2023-01-28T00:02:53;11.57;;;10.07;;
21754;SDS011;11039;50.028;19.938;2023-01-28T00:05:19;13.27;;;10.27;;
21754;SDS011;11039;50.028;19.938;2023-01-28T00:07:48;14.10;;;9.95;;
21754;SDS011;11039;50.028;19.938;2023-01-28T00:10:14;13.85;;;9.98;;
21754;SDS011;11039;50.028;19.938;2023-01-28T00:12:40;12.52;;;10.23;;
21754;SDS011;11039;50.028;19.938;2023-01-28T00:15:06;13.27;;;10.35;;
21754;SDS011;11039;50.028;19.938;2023-01-28T00:17:32;11.57;;;9.55;;
21754;SDS011;11039;50.028;19.938;2023-01-28T00:20:01;14.52;;;10.20;;
21754;SDS011;11039;50.028;19.938;2023-01-28T00:22:27;12.23;;;9.68;;
21754;SDS011;11039;50.028;19.938;2023-01-28T00:24:53;13.40;;;10.15;;
21754;SDS011;11039;50.028;19.938;2023-01-28T00:27:19;13.25;;;10.32;;
21754;SDS011;11039;50.028;19.938;2023-01-28T00:29:45;11.85;;;9.93;;
21754;SDS011;11039;50.028;19.938;2023-01-28T00:32:11;12.45;;;9.98;;
21754;SDS011;11039;50.028;19.938;2023-01-28T00:34:37;11.32;;;9.63;;
21754;SDS011;11039;50.028;19.938;2023-01-28T00:37:03;12.50;;;10.52;;
21754;SDS011;11039;50.028;19.938;2023-01-28T00:39:30;11.40;;;9.48;;
21754;SDS011;11039;50.028;19.938;2023-01-28T00:41:56;13.48;;;10.45;;
21754;SDS011;11039;50.028;19.938;2023-01-28T00:44:22;14.18;;;10.48;;
21754;SDS011;11039;50.028;19.938;2023-01-28T00:46:48;11.93;;;10.02;;
21754;SDS011;11039;50.028;19.938;2023-01-28T00:49:14;11.27;;;9.68;;
21754;SDS011;11039;50.028;19.938;2023-01-28T00:51:40;12.70;;;9.93;;
21754;SDS011;11039;50.028;19.938;2023-01-28T00:54:06;11.02;;;9.45;;
21754;SDS011;11039;50.028;19.938;2023-01-28T00:56:32;11.07;;;9.57;;
21754;SDS011;11039;50.028;19.938;2023-01-28T00:59:00;13.77;;;10.25;;
21754;SDS011;11039;50.028;19.938;2023-01-28T01:01:27;13.40;;;9.77;;
21754;SDS011;11039;50.028;19.938;2023-01-28T01:03:53;10.93;;;9.48;;
21754;SDS011;11039;50.028;19.938;2023-01-28T01:06:27;13.25;;;9.77;;
21754;SDS011;11039;50.028;19.938;2023-01-28T01:08:53;10.95;;;9.25;;
21754;SDS011;11039;50.028;19.938;2023-01-28T01:11:19;11.23;;;9.25;;
21754;SDS011;11039;50.028;19.938;2023-01-28T01:13:49;11.82;;;9.80;;
21754;SDS011;11039;50.028;19.938;2023-01-28T01:16:15;11.20;;;9.73;;
21754;SDS011;11039;50.028;19.938;2023-01-28T01:18:41;11.82;;;9.73;;
21754;SDS011;11039;50.028;19.938;2023-01-28T01:21:15;13.50;;;10.60;;
21754;SDS011;11039;50.028;19.938;2023-01-28T01:23:42;11.52;;;9.75;;
21754;SDS011;11039;50.028;19.938;2023-01-28T01:26:09;11.07;;;9.20;;
21754;SDS011;11039;50.028;19.938;2023-01-28T01:28:35;11.85;;;9.63;;
21754;SDS011;11039;50.028;19.938;2023-01-28T01:31:02;12.80;;;9.75;;
21754;SDS011;11039;50.028;19.938;2023-01-28T01:33:29;11.02;;;9.52;;
21754;SDS011;11039;50.028;19.938;2023-01-28T01:35:56;11.15;;;9.52;;
21754;SDS011;11039;50.028;19.938;2023-01-28T01:38:22;10.77;;;9.13;;
21754;SDS011;11039;50.028;19.938;2023-01-28T01:40:48;11.77;;;10.15;;
21754;SDS011;11039;50.028;19.938;2023-01-28T01:43:18;11.88;;;9.35;;
21754;SDS011;11039;50.028;19.938;2023-01-28T01:45:52;11.18;;;9.80;;
21754;SDS011;11039;50.028;19.938;2023-01-28T01:48:41;10.20;;;8.70;;
21754;SDS011;11039;50.028;19.938;2023-01-28T01:51:08;11.57;;;10.10;;
21754;SDS011;11039;50.028;19.938;2023-01-28T01:53:36;11.00;;;9.43;;
21754;SDS011;11039;50.028;19.938;2023-01-28T01:56:05;11.20;;;10.02;;
21754;SDS011;11039;50.028;19.938;2023-01-28T01:58:34;10.55;;;8.95;;
21754;SDS011;11039;50.028;19.938;2023-01-28T02:01:03;11.90;;;10.02;;
21754;SDS011;11039;50.028;19.938;2023-01-28T02:06:10;12.88;;;9.80;;
21754;SDS011;11039;50.028;19.938;2023-01-28T02:08:37;11.50;;;9.70;;
21754;SDS011;11039;50.028;19.938;2023-01-28T02:11:04;11.70;;;9.52;;
21754;SDS011;11039;50.028;19.938;2023-01-28T02:13:41;12.23;;;9.63;;
21754;SDS011;11039;50.028;19.938;2023-01-28T02:16:09;11.80;;;9.70;;
21754;SDS011;11039;50.028;19.938;2023-01-28T02:18:35;10.88;;;9.20;;
21754;SDS011;11039;50.028;19.938;2023-01-28T02:21:26;12.13;;;10.00;;
21754;SDS011;11039;50.028;19.938;2023-01-28T02:31:51;13.85;;;10.48;;
21754;SDS011;11039;50.028;19.938;2023-01-28T02:35:03;10.95;;;9.15;;
21754;SDS011;11039;50.028;19.938;2023-01-28T02:37:10;10.93;;;9.75;;
21754;SDS011;11039;50.028;19.938;2023-01-28T02:39:39;11.10;;;9.38;;
21754;SDS011;11039;50.028;19.938;2023-01-28T02:42:11;11.20;;;9.25;;
21754;SDS011;11039;50.028;19.938;2023-01-28T02:44:40;10.48;;;9.20;;
21754;SDS011;11039;50.028;19.938;2023-01-28T02:47:10;11.90;;;10.20;;
21754;SDS011;11039;50.028;19.938;2023-01-28T02:49:55;12.25;;;9.98;;
21754;SDS011;11039;50.028;19.938;2023-01-28T03:06:22;10.93;;;9.32;;
21754;SDS011;11039;50.028;19.938;2023-01-28T03:08:53;11.75;;;9.73;;
21754;SDS011;11039;50.028;19.938;2023-01-28T03:11:39;12.00;;;10.32;;
21754;SDS011;11039;50.028;19.938;2023-01-28T03:14:25;11.65;;;9.65;;
21754;SDS011;11039;50.028;19.938;2023-01-28T03:17:54;11.52;;;9.95;;
21754;SDS011;11039;50.028;19.938;2023-01-28T03:20:18;11.70;;;9.25;;
21754;SDS011;11039;50.028;19.938;2023-01-28T03:23:06;11.60;;;9.57;;
21754;SDS011;11039;50.028;19.938;2023-01-28T03:25:52;12.65;;;9.90;;
21754;SDS011;11039;50.028;19.938;2023-01-28T03:28:39;10.70;;;9.13;;
21754;SDS011;11039;50.028;19.938;2023-01-28T03:31:23;11.13;;;9.68;;
21754;SDS011;11039;50.028;19.938;2023-01-28T03:34:08;10.95;;;9.05;;
21754;SDS011;11039;50.028;19.938;2023-01-28T03:36:53;10.50;;;9.23;;
21754;SDS011;11039;50.028;19.938;2023-01-28T03:39:24;11.85;;;9.65;;
21754;SDS011;11039;50.028;19.938;2023-01-28T03:44:25;11.65;;;9.98;;
21754;SDS011;11039;50.028;19.938;2023-01-28T03:47:11;12.07;;;10.30;;
21754;SDS011;11039;50.028;19.938;2023-01-28T03:49:38;11.25;;;9.18;;
21754;SDS011;11039;50.028;19.938;2023-01-28T03:52:04;10.82;;;9.50;;
21754;SDS011;11039;50.028;19.938;2023-01-28T03:54:30;11.45;;;9.50;;
21754;SDS011;11039;50.028;19.938;2023-01-28T03:56:56;10.57;;;8.90;;
21754;SDS011;11039;50.028;19.938;2023-01-28T03:59:22;12.00;;;9.85;;
21754;SDS011;11039;50.028;19.938;2023-01-28T04:01:48;11.13;;;9.43;;
21754;SDS011;11039;50.028;19.938;2023-01-28T04:04:14;10.30;;;9.02;;
21754;SDS011;11039;50.028;19.938;2023-01-28T04:06:51;12.13;;;9.90;;
21754;SDS011;11039;50.028;19.938;2023-01-28T04:09:17;11.35;;;9.05;;
21754;SDS011;11039;50.028;19.938;2023-01-28T04:11:43;11.95;;;9.57;;
21754;SDS011;11039;50.028;19.938;2023-01-28T04:14:09;10.20;;;8.95;;
21754;SDS011;11039;50.028;19.938;2023-01-28T04:16:36;10.63;;;9.30;;
21754;SDS011;11039;50.028;19.938;2023-01-28T04:19:02;11.93;;;9.98;;
21754;SDS011;11039;50.028;19.938;2023-01-28T04:21:28;10.13;;;8.18;;
21754;SDS011;11039;50.028;19.938;2023-01-28T04:23:54;11.63;;;9.65;;
21754;SDS011;11039;50.028;19.938;2023-01-28T04:26:20;11.18;;;9.13;;
21754;SDS011;11039;50.028;19.938;2023-01-28T04:28:46;11.80;;;9.48;;
21754;SDS011;11039;50.028;19.938;2023-01-28T04:31:12;10.90;;;9.20;;
21754;SDS011;11039;50.028;19.938;2023-01-28T04:33:38;11.88;;;9.95;;
21754;SDS011;11039;50.028;19.938;2023-01-28T04:36:04;11.18;;;9.32;;
21754;SDS011;11039;50.028;19.938;2023-01-28T04:38:30;11.77;;;10.00;;
21754;SDS011;11039;50.028;19.938;2023-01-28T04:40:56;11.18;;;9.90;;
21754;SDS011;11039;50.028;19.938;2023-01-28T04:43:22;11.10;;;9.57;;
21754;SDS011;11039;50.028;19.938;2023-01-28T04:45:48;11.23;;;9.45;;
21754;SDS011;11039;50.028;19.938;2023-01-28T04:48:14;12.82;;;9.55;;
21754;SDS011;11039;50.028;19.938;2023-01-28T04:50:41;10.75;;;9.40;;
21754;SDS011;11039;50.028;19.938;2023-01-28T04:53:07;11.60;;;9.45;;
21754;SDS011;11039;50.028;19.938;2023-01-28T04:55:33;10.55;;;9.13;;
21754;SDS011;11039;50.028;19.938;2023-01-28T04:57:59;10.85;;;9.55;;
21754;SDS011;11039;50.028;19.938;2023-01-28T05:00:25;10.65;;;9.48;;
21754;SDS011;11039;50.028;19.938;2023-01-28T05:02:51;10.55;;;9.07;;
21754;SDS011;11039;50.028;19.938;2023-01-28T05:05:18;12.15;;;9.20;;
21754;SDS011;11039;50.028;19.938;2023-01-28T05:07:44;10.43;;;8.82;;
21754;SDS011;11039;50.028;19.938;2023-01-28T05:10:15;10.32;;;9.23;;
21754;SDS011;11039;50.028;19.938;2023-01-28T05:12:42;11.88;;;9.40;;
21754;SDS011;11039;50.028;19.938;2023-01-28T05:15:08;11.20;;;9.32;;
21754;SDS011;11039;50.028;19.938;2023-01-28T05:17:34;10.98;;;8.77;;
21754;SDS011;11039;50.028;19.938;2023-01-28T05:20:00;11.05;;;9.18;;
21754;SDS011;11039;50.028;19.938;2023-01-28T05:22:27;10.25;;;8.85;;
21754;SDS011;11039;50.028;19.938;2023-01-28T05:24:53;10.13;;;8.85;;
21754;SDS011;11039;50.028;19.938;2023-01-28T05:27:19;11.18;;;9.43;;
21754;SDS011;11039;50.028;19.938;2023-01-28T05:29:45;10.82;;;8.82;;
21754;SDS011;11039;50.028;19.938;2023-01-28T05:32:11;10.13;;;9.00;;
21754;SDS011;11039;50.028;19.938;2023-01-28T05:34:37;10.55;;;8.80;;
21754;SDS011;11039;50.028;19.938;2023-01-28T05:37:03;11.68;;;9.52;;
21754;SDS011;11039;50.028;19.938;2023-01-28T05:39:29;10.43;;;9.02;;
21754;SDS011;11039;50.028;19.938;2023-01-28T05:41:56;10.80;;;9.40;;
21754;SDS011;11039;50.028;19.938;2023-01-28T05:44:22;12.00;;;9.43;;
21754;SDS011;11039;50.028;19.938;2023-01-28T05:46:48;10.48;;;9.35;;
21754;SDS011;11039;50.028;19.938;2023-01-28T05:49:14;10.55;;;8.93;;
21754;SDS011;11039;50.028;19.938;2023-01-28T05:51:40;10.07;;;8.82;;
21754;SDS011;11039;50.028;19.938;2023-01-28T05:54:07;10.70;;;8.85;;
21754;SDS011;11039;50.028;19.938;2023-01-28T05:56:33;12.05;;;9.02;;
21754;SDS011;11039;50.028;19.938;2023-01-28T05:59:00;10.80;;;9.30;;
21754;SDS011;11039;50.028;19.938;2023-01-28T06:01:27;9.93;;;8.18;;
21754;SDS011;11039;50.028;19.938;2023-01-28T06:03:53;10.35;;;8.93;;
21754;SDS011;11039;50.028;19.938;2023-01-28T06:06:19;9.80;;;8.43;;
21754;SDS011;11039;50.028;19.938;2023-01-28T06:08:45;9.82;;;8.70;;
21754;SDS011;11039;50.028;19.938;2023-01-28T06:11:11;10.38;;;8.30;;
21754;SDS011;11039;50.028;19.938;2023-01-28T06:13:37;10.23;;;8.68;;
21754;SDS011;11039;50.028;19.938;2023-01-28T06:16:05;10.65;;;8.80;;
21754;SDS011;11039;50.028;19.938;2023-01-28T06:18:31;9.93;;;8.23;;
21754;SDS011;11039;50.028;19.938;2023-01-28T06:20:58;10.45;;;8.45;;
21754;SDS011;11039;50.028;19.938;2023-01-28T06:23:24;9.43;;;8.43;;
21754;SDS011;11039;50.028;19.938;2023-01-28T06:25:54;10.80;;;8.35;;
21754;SDS011;11039;50.028;19.938;2023-01-28T06:28:20;9.30;;;8.32;;
21754;SDS011;11039;50.028;19.938;2023-01-28T06:30:52;10.07;;;8.13;;
21754;SDS011;11039;50.028;19.938;2023-01-28T06:33:19;10.68;;;8.18;;
21754;SDS011;11039;50.028;19.938;2023-01-28T06:35:45;10.38;;;8.77;;
21754;SDS011;11039;50.028;19.938;2023-01-28T06:38:11;10.75;;;8.90;;
21754;SDS011;11039;50.028;19.938;2023-01-28T06:40:38;10.75;;;8.65;;
21754;SDS011;11039;50.028;19.938;2023-01-28T06:43:04;11.02;;;8.93;;
21754;SDS011;11039;50.028;19.938;2023-01-28T06:45:30;9.27;;;8.38;;
21754;SDS011;11039;50.028;19.938;2023-01-28T06:47:56;10.00;;;8.15;;
21754;SDS011;11039;50.028;19.938;2023-01-28T06:50:23;9.70;;;8.07;;
21754;SDS011;11039;50.028;19.938;2023-01-28T06:52:49;9.70;;;8.20;;
21754;SDS011;11039;50.028;19.938;2023-01-28T06:55:15;9.35;;;8.23;;
21754;SDS011;11039;50.028;19.938;2023-01-28T06:57:41;9.27;;;7.53;;
21754;SDS011;11039;50.028;19.938;2023-01-28T07:00:09;8.77;;;7.80;;
21754;SDS011;11039;50.028;19.938;2023-01-28T07:02:37;10.75;;;8.32;;
21754;SDS011;11039;50.028;19.938;2023-01-28T07:05:03;10.68;;;8.32;;
21754;SDS011;11039;50.028;19.938;2023-01-28T07:07:29;8.98;;;7.68;;
21754;SDS011;11039;50.028;19.938;2023-01-28T07:09:55;9.43;;;8.07;;
21754;SDS011;11039;50.028;19.938;2023-01-28T07:12:21;9.52;;;7.95;;
21754;SDS011;11039;50.028;19.938;2023-01-28T07:14:47;9.57;;;7.95;;
21754;SDS011;11039;50.028;19.938;2023-01-28T07:17:13;9.95;;;8.10;;
21754;SDS011;11039;50.028;19.938;2023-01-28T07:19:39;9.48;;;7.68;;
21754;SDS011;11039;50.028;19.938;2023-01-28T07:22:05;9.05;;;7.60;;
21754;SDS011;11039;50.028;19.938;2023-01-28T07:24:31;10.13;;;8.00;;
21754;SDS011;11039;50.028;19.938;2023-01-28T07:26:57;9.13;;;7.55;;
21754;SDS011;11039;50.028;19.938;2023-01-28T07:29:23;10.93;;;8.57;;
21754;SDS011;11039;50.028;19.938;2023-01-28T07:31:50;10.25;;;7.40;;
21754;SDS011;11039;50.028;19.938;2023-01-28T07:34:16;8.02;;;7.22;;
21754;SDS011;11039;50.028;19.938;2023-01-28T07:36:42;9.50;;;7.82;;
21754;SDS011;11039;50.028;19.938;2023-01-28T07:39:08;9.07;;;7.40;;
21754;SDS011;11039;50.028;19.938;2023-01-28T07:41:34;9.43;;;8.05;;
21754;SDS011;11039;50.028;19.938;2023-01-28T07:44:00;9.35;;;7.40;;
21754;SDS011;11039;50.028;19.938;2023-01-28T07:46:26;8.88;;;7.22;;
21754;SDS011;11039;50.028;19.938;2023-01-28T07:48:52;9.10;;;7.35;;
21754;SDS011;11039;50.028;19.938;2023-01-28T07:51:18;8.77;;;7.88;;
21754;SDS011;11039;50.028;19.938;2023-01-28T07:53:44;9.05;;;7.38;;
21754;SDS011;11039;50.028;19.938;2023-01-28T07:56:10;9.07;;;7.53;;
21754;SDS011;11039;50.028;19.938;2023-01-28T07:58:36;8.68;;;7.38;;
21754;SDS011;11039;50.028;19.938;2023-01-28T08:01:03;9.45;;;7.47;;
21754;SDS011;11039;50.028;19.938;2023-01-28T08:03:29;9.88;;;7.57;;
21754;SDS011;11039;50.028;19.938;2023-01-28T08:05:55;8.40;;;7.40;;
21754;SDS011;11039;50.028;19.938;2023-01-28T08:08:22;9.02;;;7.35;;
21754;SDS011;11039;50.028;19.938;2023-01-28T08:10:49;7.63;;;6.70;;
21754;SDS011;11039;50.028;19.938;2023-01-28T08:13:16;8.18;;;7.05;;
21754;SDS011;11039;50.028;19.938;2023-01-28T08:15:42;7.82;;;6.95;;
21754;SDS011;11039;50.028;19.938;2023-01-28T08:18:09;8.50;;;7.20;;
21754;SDS011;11039;50.028;19.938;2023-01-28T08:20:39;7.85;;;7.00;;
21754;SDS011;11039;50.028;19.938;2023-01-28T08:25:33;8.73;;;7.40;;
21754;SDS011;11039;50.028;19.938;2023-01-28T08:27:59;8.05;;;6.65;;
21754;SDS011;11039;50.028;19.938;2023-01-28T08:30:25;8.93;;;7.40;;
21754;SDS011;11039;50.028;19.938;2023-01-28T08:32:54;8.25;;;6.85;;
21754;SDS011;11039;50.028;19.938;2023-01-28T08:35:20;7.72;;;6.70;;
21754;SDS011;11039;50.028;19.938;2023-01-28T08:37:46;7.85;;;6.70;;
21754;SDS011;11039;50.028;19.938;2023-01-28T08:40:12;8.15;;;6.70;;
21754;SDS011;11039;50.028;19.938;2023-01-28T08:42:38;7.95;;;6.53;;
21754;SDS011;11039;50.028;19.938;2023-01-28T08:45:04;7.55;;;6.30;;
21754;SDS011;11039;50.028;19.938;2023-01-28T08:47:30;7.15;;;6.32;;
21754;SDS011;11039;50.028;19.938;2023-01-28T08:49:56;7.78;;;6.78;;
21754;SDS011;11039;50.028;19.938;2023-01-28T08:52:22;7.63;;;6.38;;
21754;SDS011;11039;50.028;19.938;2023-01-28T08:54:48;8.02;;;6.68;;
21754;SDS011;11039;50.028;19.938;2023-01-28T08:57:14;7.70;;;6.78;;
21754;SDS011;11039;50.028;19.938;2023-01-28T08:59:40;8.20;;;6.63;;
21754;SDS011;11039;50.028;19.938;2023-01-28T09:02:11;7.45;;;6.10;;
21754;SDS011;11039;50.028;19.938;2023-01-28T09:04:38;7.60;;;6.43;;
21754;SDS011;11039;50.028;19.938;2023-01-28T09:07:06;8.43;;;6.28;;
21754;SDS011;11039;50.028;19.938;2023-01-28T09:09:32;7.32;;;6.20;;
21754;SDS011;11039;50.028;19.938;2023-01-28T09:11:58;7.28;;;6.10;;
21754;SDS011;11039;50.028;19.938;2023-01-28T09:14:24;7.88;;;6.47;;
21754;SDS011;11039;50.028;19.938;2023-01-28T09:16:50;7.28;;;6.50;;
21754;SDS011;11039;50.028;19.938;2023-01-28T09:19:16;7.60;;;6.50;;
21754;SDS011;11039;50.028;19.938;2023-01-28T09:21:42;7.78;;;6.00;;
21754;SDS011;11039;50.028;19.938;2023-01-28T09:24:11;8.02;;;6.35;;
21754;SDS011;11039;50.028;19.938;2023-01-28T09:26:37;7.47;;;6.15;;
21754;SDS011;11039;50.028;19.938;2023-01-28T09:29:03;8.38;;;6.50;;
21754;SDS011;11039;50.028;19.938;2023-01-28T09:31:29;7.85;;;6.05;;
21754;SDS011;11039;50.028;19.938;2023-01-28T09:33:55;7.65;;;5.78;;
21754;SDS011;11039;50.028;19.938;2023-01-28T09:36:21;8.23;;;6.07;;
21754;SDS011;11039;50.028;19.938;2023-01-28T09:38:48;7.03;;;5.85;;
21754;SDS011;11039;50.028;19.938;2023-01-28T09:41:19;8.02;;;5.88;;
21754;SDS011;11039;50.028;19.938;2023-01-28T09:46:15;8.25;;;6.25;;
21754;SDS011;11039;50.028;19.938;2023-01-28T09:48:46;8.25;;;5.90;;
21754;SDS011;11039;50.028;19.938;2023-01-28T09:51:35;6.72;;;5.75;;
21754;SDS011;11039;50.028;19.938;2023-01-28T09:54:11;6.75;;;5.50;;
21754;SDS011;11039;50.028;19.938;2023-01-28T09:56:42;7.10;;;5.70;;
21754;SDS011;11039;50.028;19.938;2023-01-28T10:01:46;8.25;;;5.47;;
21754;SDS011;11039;50.028;19.938;2023-01-28T10:04:18;8.65;;;5.43;;
21754;SDS011;11039;50.028;19.938;2023-01-28T10:14:10;9.30;;;5.63;;
21754;SDS011;11039;50.028;19.938;2023-01-28T10:16:49;7.78;;;5.75;;
21754;SDS011;11039;50.028;19.938;2023-01-28T10:19:21;7.18;;;5.40;;
21754;SDS011;11039;50.028;19.938;2023-01-28T10:21:49;7.32;;;5.80;;
21754;SDS011;11039;50.028;19.938;2023-01-28T10:24:21;6.85;;;5.25;;
21754;SDS011;11039;50.028;19.938;2023-01-28T10:26:48;9.35;;;5.90;;
21754;SDS011;11039;50.028;19.938;2023-01-28T10:29:18;8.27;;;5.80;;
21754;SDS011;11039;50.028;19.938;2023-01-28T10:31:50;7.45;;;5.72;;
21754;SDS011;11039;50.028;19.938;2023-01-28T10:34:17;7.72;;;5.30;;
21754;SDS011;11039;50.028;19.938;2023-01-28T10:36:43;6.78;;;5.40;;
21754;SDS011;11039;50.028;19.938;2023-01-28T10:39:10;15.05;;;5.60;;
21754;SDS011;11039;50.028;19.938;2023-01-28T10:41:38;6.93;;;5.45;;
21754;SDS011;11039;50.028;19.938;2023-01-28T10:44:04;7.93;;;5.63;;
21754;SDS011;11039;50.028;19.938;2023-01-28T10:46:32;6.78;;;5.43;;
21754;SDS011;11039;50.028;19.938;2023-01-28T10:49:01;7.30;;;5.20;;
21754;SDS011;11039;50.028;19.938;2023-01-28T10:51:33;6.63;;;5.28;;
21754;SDS011;11039;50.028;19.938;2023-01-28T10:53:59;7.60;;;5.47;;
21754;SDS011;11039;50.028;19.938;2023-01-28T10:56:26;7.75;;;5.50;;
21754;SDS011;11039;50.028;19.938;2023-01-28T11:01:23;7.40;;;5.07;;
21754;SDS011;11039;50.028;19.938;2023-01-28T11:03:57;6.40;;;5.22;;
21754;SDS011;11039;50.028;19.938;2023-01-28T11:06:24;6.70;;;5.00;;
21754;SDS011;11039;50.028;19.938;2023-01-28T11:08:50;7.25;;;5.47;;
21754;SDS011;11039;50.028;19.938;2023-01-28T11:11:21;6.22;;;5.32;;
21754;SDS011;11039;50.028;19.938;2023-01-28T11:13:49;6.53;;;5.30;;
21754;SDS011;11039;50.028;19.938;2023-01-28T11:16:16;5.65;;;5.00;;
21754;SDS011;11039;50.028;19.938;2023-01-28T11:19:01;7.93;;;5.18;;
21754;SDS011;11039;50.028;19.938;2023-01-28T11:21:29;6.18;;;5.40;;
21754;SDS011;11039;50.028;19.938;2023-01-28T11:23:59;8.07;;;5.32;;
21754;SDS011;11039;50.028;19.938;2023-01-28T11:26:27;7.50;;;4.93;;
21754;SDS011;11039;50.028;19.938;2023-01-28T11:28:54;6.75;;;4.90;;
21754;SDS011;11039;50.028;19.938;2023-01-28T11:31:20;9.57;;;5.45;;
21754;SDS011;11039;50.028;19.938;2023-01-28T11:36:18;5.80;;;4.95;;
21754;SDS011;11039;50.028;19.938;2023-01-28T11:41:13;8.63;;;5.57;;
21754;SDS011;11039;50.028;19.938;2023-01-28T11:43:40;6.50;;;5.13;;
21754;SDS011;11039;50.028;19.938;2023-01-28T11:57:01;7.03;;;5.30;;
21754;SDS011;11039;50.028;19.938;2023-01-28T11:59:12;7.70;;;4.90;;
21754;SDS011;11039;50.028;19.938;2023-01-28T12:09:20;6.00;;;4.97;;
21754;SDS011;11039;50.028;19.938;2023-01-28T12:22:00;6.35;;;5.05;;
21754;SDS011;11039;50.028;19.938;2023-01-28T12:43:01;6.72;;;5.20;;
21754;SDS011;11039;50.028;19.938;2023-01-28T12:45:38;6.55;;;5.32;;
21754;SDS011;11039;50.028;19.938;2023-01-28T12:48:18;6.60;;;5.50;;
21754;SDS011;11039;50.028;19.938;2023-01-28T12:53:20;14.13;;;10.55;;
21754;SDS011;11039;50.028;19.938;2023-01-28T12:55:47;10.82;;;8.75;;
21754;SDS011;11039;50.028;19.938;2023-01-28T12:58:16;9.88;;;7.10;;
21754;SDS011;11039;50.028;19.938;2023-01-28T13:00:50;10.70;;;7.22;;
21754;SDS011;11039;50.028;19.938;2023-01-28T13:03:20;9.88;;;6.68;;
21754;SDS011;11039;50.028;19.938;2023-01-28T13:05:51;8.20;;;6.68;;
21754;SDS011;11039;50.028;19.938;2023-01-28T13:08:25;7.82;;;5.85;;
21754;SDS011;11039;50.028;19.938;2023-01-28T13:10:51;9.43;;;6.63;;
21754;SDS011;11039;50.028;19.938;2023-01-28T13:15:50;7.60;;;6.45;;
21754;SDS011;11039;50.028;19.938;2023-01-28T13:21:02;7.80;;;6.00;;
21754;SDS011;11039;50.028;19.938;2023-01-28T13:25:56;7.70;;;6.05;;
21754;SDS011;11039;50.028;19.938;2023-01-28T13:28:33;7.75;;;6.18;;
21754;SDS011;11039;50.028;19.938;2023-01-28T13:31:09;7.63;;;6.22;;
21754;SDS011;11039;50.028;19.938;2023-01-28T13:33:41;7.70;;;6.50;;
21754;SDS011;11039;50.028;19.938;2023-01-28T13:38:43;7.13;;;5.88;;
21754;SDS011;11039;50.028;19.938;2023-01-28T13:41:10;7.68;;;5.95;;
21754;SDS011;11039;50.028;19.938;2023-01-28T13:43:38;7.93;;;6.03;;
21754;SDS011;11039;50.028;19.938;2023-01-28T13:46:12;8.40;;;5.75;;
21754;SDS011;11039;50.028;19.938;2023-01-28T13:51:08;7.30;;;6.05;;
21754;SDS011;11039;50.028;19.938;2023-01-28T13:53:39;7.43;;;6.18;;
21754;SDS011;11039;50.028;19.938;2023-01-28T13:56:21;7.93;;;6.05;;
21754;SDS011;11039;50.028;19.938;2023-01-28T14:09:15;6.57;;;5.75;;
21754;SDS011;11039;50.028;19.938;2023-01-28T14:12:08;6.80;;;5.47;;
21754;SDS011;11039;50.028;19.938;2023-01-28T14:19:49;6.97;;;5.75;;
21754;SDS011;11039;50.028;19.938;2023-01-28T14:22:17;6.57;;;5.88;;
21754;SDS011;11039;50.028;19.938;2023-01-28T14:24:44;6.57;;;5.80;;
21754;SDS011;11039;50.028;19.938;2023-01-28T14:27:13;6.60;;;5.70;;
21754;SDS011;11039;50.028;19.938;2023-01-28T14:32:24;7.07;;;6.15;;
21754;SDS011;11039;50.028;19.938;2023-01-28T14:34:52;6.90;;;5.85;;
21754;SDS011;11039;50.028;19.938;2023-01-28T14:37:19;7.43;;;6.03;;
21754;SDS011;11039;50.028;19.938;2023-01-28T14:39:48;6.28;;;5.40;;
21754;SDS011;11039;50.028;19.938;2023-01-28T14:42:18;6.57;;;5.78;;
21754;SDS011;11039;50.028;19.938;2023-01-28T14:44:44;7.70;;;6.00;;
21754;SDS011;11039;50.028;19.938;2023-01-28T14:55:03;13.25;;;11.23;;
21754;SDS011;11039;50.028;19.938;2023-01-28T14:59:59;16.98;;;12.82;;
21754;SDS011;11039;50.028;19.938;2023-01-28T15:02:27;19.10;;;14.25;;
21754;SDS011;11039;50.028;19.938;2023-01-28T15:04:53;20.52;;;16.20;;
21754;SDS011;11039;50.028;19.938;2023-01-28T15:07:26;19.67;;;15.40;;
21754;SDS011;11039;50.028;19.938;2023-01-28T15:09:59;26.67;;;18.90;;
21754;SDS011;11039;50.028;19.938;2023-01-28T15:12:25;26.25;;;19.35;;
21754;SDS011;11039;50.028;19.938;2023-01-28T15:14:52;28.73;;;21.52;;
21754;SDS011;11039;50.028;19.938;2023-01-28T15:17:22;20.83;;;15.88;;
21754;SDS011;11039;50.028;19.938;2023-01-28T15:19:49;19.73;;;14.32;;
21754;SDS011;11039;50.028;19.938;2023-01-28T15:22:16;17.98;;;12.77;;
21754;SDS011;11039;50.028;19.938;2023-01-28T15:24:43;18.25;;;13.07;;
21754;SDS011;11039;50.028;19.938;2023-01-28T15:27:16;17.38;;;12.20;;
21754;SDS011;11039;50.028;19.938;2023-01-28T15:29:52;16.75;;;12.35;;
21754;SDS011;11039;50.028;19.938;2023-01-28T15:32:23;16.70;;;11.88;;
21754;SDS011;11039;50.028;19.938;2023-01-28T15:34:49;17.70;;;12.73;;
21754;SDS011;11039;50.028;19.938;2023-01-28T15:37:15;14.88;;;11.85;;
21754;SDS011;11039;50.028;19.938;2023-01-28T15:39:42;15.45;;;11.20;;
21754;SDS011;11039;50.028;19.938;2023-01-28T15:42:13;15.57;;;11.00;;
21754;SDS011;11039;50.028;19.938;2023-01-28T15:44:42;15.52;;;11.13;;
21754;SDS011;11039;50.028;19.938;2023-01-28T15:49:42;15.95;;;10.90;;
21754;SDS011;11039;50.028;19.938;2023-01-28T15:52:09;15.35;;;10.85;;
21754;SDS011;11039;50.028;19.938;2023-01-28T15:54:37;13.40;;;10.60;;
21754;SDS011;11039;50.028;19.938;2023-01-28T15:57:19;15.30;;;11.20;;
21754;SDS011;11039;50.028;19.938;2023-01-28T15:59:46;13.95;;;11.02;;
21754;SDS011;11039;50.028;19.938;2023-01-28T16:02:19;16.80;;;10.80;;
21754;SDS011;11039;50.028;19.938;2023-01-28T16:04:55;14.15;;;9.60;;
21754;SDS011;11039;50.028;19.938;2023-01-28T16:07:22;14.77;;;10.65;;
21754;SDS011;11039;50.028;19.938;2023-01-28T16:09:55;16.58;;;11.13;;
21754;SDS011;11039;50.028;19.938;2023-01-28T16:12:22;13.77;;;9.55;;
21754;SDS011;11039;50.028;19.938;2023-01-28T16:14:49;17.35;;;10.88;;
21754;SDS011;11039;50.028;19.938;2023-01-28T16:17:16;13.15;;;9.85;;
21754;SDS011;11039;50.028;19.938;2023-01-28T16:19:44;14.77;;;10.32;;
21754;SDS011;11039;50.028;19.938;2023-01-28T16:22:18;13.98;;;10.80;;
21754;SDS011;11039;50.028;19.938;2023-01-28T16:24:49;14.10;;;9.60;;
21754;SDS011;11039;50.028;19.938;2023-01-28T16:27:20;14.35;;;10.52;;
21754;SDS011;11039;50.028;19.938;2023-01-28T16:29:46;13.80;;;10.20;;
21754;SDS011;11039;50.028;19.938;2023-01-28T16:32:28;17.02;;;10.30;;
21754;SDS011;11039;50.028;19.938;2023-01-28T16:34:55;15.40;;;10.55;;
21754;SDS011;11039;50.028;19.938;2023-01-28T16:37:21;12.82;;;9.55;;
21754;SDS011;11039;50.028;19.938;2023-01-28T16:39:47;14.05;;;9.88;;
21754;SDS011;11039;50.028;19.938;2023-01-28T16:42:13;14.32;;;10.00;;
21754;SDS011;11039;50.028;19.938;2023-01-28T16:44:40;16.25;;;10.30;;
21754;SDS011;11039;50.028;19.938;2023-01-28T16:47:06;18.05;;;10.85;;
21754;SDS011;11039;50.028;19.938;2023-01-28T16:49:32;14.75;;;10.07;;
21754;SDS011;11039;50.028;19.938;2023-01-28T16:51:58;15.48;;;10.45;;
21754;SDS011;11039;50.028;19.938;2023-01-28T16:54:25;15.60;;;10.45;;